sensor_id;sensor_type;location;lat;lon;timestamp;temperature;humidity
3300;DHT22;1662;49.310;8.134;2024-01-11T00:00:08;-1.70;99.90
3300;DHT22;1662;49.310;8.134;2024-01-11T00:02:36;-1.70;99.90
3300;DHT22;1662;49.310;8.134;2024-01-11T00:05:02;-1.70;99.90
3300;DHT22;1662;49.310;8.134;2024-01-11T00:07:27;-1.70;99.90
3300;DHT22;1662;49.310;8.134;2024-01-11T00:09:53;-1.70;99.90
3300;DHT22;1662;49.310;8.134;2024-01-11T00:12:19;-1.70;99.90
3300;DHT22;1662;49.310;8.134;2024-01-11T00:14:47;-1.70;99.90
3300;DHT22;1662;49.310;8.134;2024-01-11T00:17:12;-1.70;99.90
3300;DHT22;1662;49.310;8.134;2024-01-11T00:19:38;-1.70;99.90
3300;DHT22;1662;49.310;8.134;2024-01-11T00:22:04;-1.60;99.90
3300;DHT22;1662;49.310;8.134;2024-01-11T00:24:29;-1.60;99.90
3300;DHT22;1662;49.310;8.134;2024-01-11T00:26:55;-1.60;99.90
3300;DHT22;1662;49.310;8.134;2024-01-11T00:29:20;-1.50;99.90
3300;DHT22;1662;49.310;8.134;2024-01-11T00:31:46;-1.50;99.90
3300;DHT22;1662;49.310;8.134;2024-01-11T00:34:11;-1.50;99.90
3300;DHT22;1662;49.310;8.134;2024-01-11T00:36:37;-1.50;99.90
3300;DHT22;1662;49.310;8.134;2024-01-11T00:39:03;-1.50;99.90
3300;DHT22;1662;49.310;8.134;2024-01-11T00:41:28;-1.50;99.90
3300;DHT22;1662;49.310;8.134;2024-01-11T00:43:54;-1.50;99.90
3300;DHT22;1662;49.310;8.134;2024-01-11T00:46:19;-1.50;99.90
3300;DHT22;1662;49.310;8.134;2024-01-11T00:48:45;-1.50;99.90
3300;DHT22;1662;49.310;8.134;2024-01-11T00:51:11;-1.50;99.90
3300;DHT22;1662;49.310;8.134;2024-01-11T00:53:39;-1.40;99.90
3300;DHT22;1662;49.310;8.134;2024-01-11T00:56:15;-1.40;99.90
3300;DHT22;1662;49.310;8.134;2024-01-11T00:58:41;-1.40;99.90
3300;DHT22;1662;49.310;8.134;2024-01-11T01:01:09;-1.30;99.90
3300;DHT22;1662;49.310;8.134;2024-01-11T01:03:35;-1.40;99.90
3300;DHT22;1662;49.310;8.134;2024-01-11T01:06:01;-1.50;99.90
3300;DHT22;1662;49.310;8.134;2024-01-11T01:08:29;-1.50;99.90
3300;DHT22;1662;49.310;8.134;2024-01-11T01:10:58;-1.60;99.90
3300;DHT22;1662;49.310;8.134;2024-01-11T01:13:23;-1.50;99.90
3300;DHT22;1662;49.310;8.134;2024-01-11T01:15:49;-1.50;99.90
3300;DHT22;1662;49.310;8.134;2024-01-11T01:18:15;-1.50;99.90
3300;DHT22;1662;49.310;8.134;2024-01-11T01:20:40;-1.50;99.90
3300;DHT22;1662;49.310;8.134;2024-01-11T01:23:06;-1.60;99.90
3300;DHT22;1662;49.310;8.134;2024-01-11T01:25:32;-1.60;99.90
3300;DHT22;1662;49.310;8.134;2024-01-11T01:27:58;-1.50;99.90
3300;DHT22;1662;49.310;8.134;2024-01-11T01:30:24;-1.60;99.90
3300;DHT22;1662;49.310;8.134;2024-01-11T01:32:50;-1.50;99.90
3300;DHT22;1662;49.310;8.134;2024-01-11T01:35:16;-1.50;99.90
3300;DHT22;1662;49.310;8.134;2024-01-11T01:37:41;-1.50;99.90
3300;DHT22;1662;49.310;8.134;2024-01-11T01:40:08;-1.50;99.90
3300;DHT22;1662;49.310;8.134;2024-01-11T01:42:34;-1.50;99.90
3300;DHT22;1662;49.310;8.134;2024-01-11T01:45:00;-1.50;99.90
3300;DHT22;1662;49.310;8.134;2024-01-11T01:47:26;-1.50;99.90
3300;DHT22;1662;49.310;8.134;2024-01-11T01:49:55;-1.50;99.90
3300;DHT22;1662;49.310;8.134;2024-01-11T01:52:22;-1.50;99.90
3300;DHT22;1662;49.310;8.134;2024-01-11T01:54:49;-1.50;99.90
3300;DHT22;1662;49.310;8.134;2024-01-11T01:57:16;-1.40;99.90
3300;DHT22;1662;49.310;8.134;2024-01-11T01:59:45;-1.50;99.90
3300;DHT22;1662;49.310;8.134;2024-01-11T02:02:12;-1.50;99.90
3300;DHT22;1662;49.310;8.134;2024-01-11T02:04:37;-1.50;99.90
3300;DHT22;1662;49.310;8.134;2024-01-11T02:07:04;-1.40;99.90
3300;DHT22;1662;49.310;8.134;2024-01-11T02:09:32;-1.40;99.90
3300;DHT22;1662;49.310;8.134;2024-01-11T02:11:59;-1.40;99.90
3300;DHT22;1662;49.310;8.134;2024-01-11T02:14:26;-1.40;99.90
3300;DHT22;1662;49.310;8.134;2024-01-11T02:16:52;-1.30;99.90
3300;DHT22;1662;49.310;8.134;2024-01-11T02:19:19;-1.30;99.90
3300;DHT22;1662;49.310;8.134;2024-01-11T02:21:46;-1.30;99.90
3300;DHT22;1662;49.310;8.134;2024-01-11T02:24:14;-1.40;99.90
3300;DHT22;1662;49.310;8.134;2024-01-11T02:27:03;-1.40;99.90
3300;DHT22;1662;49.310;8.134;2024-01-11T02:29:30;-1.40;99.90
3300;DHT22;1662;49.310;8.134;2024-01-11T02:31:56;-1.50;99.90
3300;DHT22;1662;49.310;8.134;2024-01-11T02:34:26;-1.50;99.90
3300;DHT22;1662;49.310;8.134;2024-01-11T02:36:55;-1.40;99.90
3300;DHT22;1662;49.310;8.134;2024-01-11T02:39:23;-1.40;99.90
3300;DHT22;1662;49.310;8.134;2024-01-11T02:41:50;-1.40;99.90
3300;DHT22;1662;49.310;8.134;2024-01-11T02:44:16;-1.50;99.90
3300;DHT22;1662;49.310;8.134;2024-01-11T02:46:42;-1.50;99.90
3300;DHT22;1662;49.310;8.134;2024-01-11T02:49:07;-1.50;99.90
3300;DHT22;1662;49.310;8.134;2024-01-11T02:51:33;-1.50;99.90
3300;DHT22;1662;49.310;8.134;2024-01-11T02:53:58;-1.50;99.90
3300;DHT22;1662;49.310;8.134;2024-01-11T02:56:24;-1.50;99.90
3300;DHT22;1662;49.310;8.134;2024-01-11T02:58:50;-1.50;99.90
3300;DHT22;1662;49.310;8.134;2024-01-11T03:01:16;-1.50;99.90
3300;DHT22;1662;49.310;8.134;2024-01-11T03:03:41;-1.50;99.90
3300;DHT22;1662;49.310;8.134;2024-01-11T03:06:07;-1.50;99.90
3300;DHT22;1662;49.310;8.134;2024-01-11T03:08:33;-1.50;99.90
3300;DHT22;1662;49.310;8.134;2024-01-11T03:10:59;-1.50;99.90
3300;DHT22;1662;49.310;8.134;2024-01-11T03:13:24;-1.50;99.90
3300;DHT22;1662;49.310;8.134;2024-01-11T03:15:50;-1.50;99.90
3300;DHT22;1662;49.310;8.134;2024-01-11T03:18:15;-1.60;99.90
3300;DHT22;1662;49.310;8.134;2024-01-11T03:20:41;-1.50;99.90
3300;DHT22;1662;49.310;8.134;2024-01-11T03:23:06;-1.50;99.90
3300;DHT22;1662;49.310;8.134;2024-01-11T03:25:32;-1.60;99.90
3300;DHT22;1662;49.310;8.134;2024-01-11T03:27:58;-1.60;99.90
3300;DHT22;1662;49.310;8.134;2024-01-11T03:30:27;-1.60;99.90
3300;DHT22;1662;49.310;8.134;2024-01-11T03:32:53;-1.60;99.90
3300;DHT22;1662;49.310;8.134;2024-01-11T03:35:19;-1.60;99.90
3300;DHT22;1662;49.310;8.134;2024-01-11T03:37:44;-1.60;99.90
3300;DHT22;1662;49.310;8.134;2024-01-11T03:40:10;-1.60;99.90
3300;DHT22;1662;49.310;8.134;2024-01-11T03:42:36;-1.60;99.90
3300;DHT22;1662;49.310;8.134;2024-01-11T03:45:02;-1.60;99.90
3300;DHT22;1662;49.310;8.134;2024-01-11T03:47:28;-1.70;99.90
3300;DHT22;1662;49.310;8.134;2024-01-11T03:49:54;-1.60;99.90
3300;DHT22;1662;49.310;8.134;2024-01-11T03:52:19;-1.70;99.90
3300;DHT22;1662;49.310;8.134;2024-01-11T03:54:45;-1.70;99.90
3300;DHT22;1662;49.310;8.134;2024-01-11T03:57:11;-1.70;99.90
3300;DHT22;1662;49.310;8.134;2024-01-11T03:59:40;-1.60;99.90
3300;DHT22;1662;49.310;8.134;2024-01-11T04:02:05;-1.60;99.90
3300;DHT22;1662;49.310;8.134;2024-01-11T04:04:32;-1.70;99.90
3300;DHT22;1662;49.310;8.134;2024-01-11T04:06:58;-1.70;99.90
3300;DHT22;1662;49.310;8.134;2024-01-11T04:09:26;-1.80;99.90
3300;DHT22;1662;49.310;8.134;2024-01-11T04:11:51;-1.80;99.90
3300;DHT22;1662;49.310;8.134;2024-01-11T04:14:17;-1.80;99.90
3300;DHT22;1662;49.310;8.134;2024-01-11T04:16:43;-1.80;99.90
3300;DHT22;1662;49.310;8.134;2024-01-11T04:19:10;-1.90;99.90
3300;DHT22;1662;49.310;8.134;2024-01-11T04:21:36;-1.90;99.90
3300;DHT22;1662;49.310;8.134;2024-01-11T04:24:04;-1.90;99.90
3300;DHT22;1662;49.310;8.134;2024-01-11T04:26:31;-2.00;99.90
3300;DHT22;1662;49.310;8.134;2024-01-11T04:28:57;-2.00;99.90
3300;DHT22;1662;49.310;8.134;2024-01-11T04:31:25;-2.00;99.90
3300;DHT22;1662;49.310;8.134;2024-01-11T04:33:51;-2.00;99.90
3300;DHT22;1662;49.310;8.134;2024-01-11T04:36:16;-2.00;99.90
3300;DHT22;1662;49.310;8.134;2024-01-11T04:38:42;-2.10;99.90
3300;DHT22;1662;49.310;8.134;2024-01-11T04:41:16;-2.10;99.90
3300;DHT22;1662;49.310;8.134;2024-01-11T04:43:43;-2.10;99.90
3300;DHT22;1662;49.310;8.134;2024-01-11T04:46:18;-2.10;99.90
3300;DHT22;1662;49.310;8.134;2024-01-11T04:48:45;-2.10;99.90
3300;DHT22;1662;49.310;8.134;2024-01-11T04:51:13;-2.00;99.90
3300;DHT22;1662;49.310;8.134;2024-01-11T04:53:39;-2.00;99.90
3300;DHT22;1662;49.310;8.134;2024-01-11T04:56:09;-2.00;99.90
3300;DHT22;1662;49.310;8.134;2024-01-11T04:58:36;-2.00;99.90
3300;DHT22;1662;49.310;8.134;2024-01-11T05:01:04;-2.00;99.90
3300;DHT22;1662;49.310;8.134;2024-01-11T05:03:30;-2.00;99.90
3300;DHT22;1662;49.310;8.134;2024-01-11T05:05:57;-2.00;99.90
3300;DHT22;1662;49.310;8.134;2024-01-11T05:08:23;-2.00;99.90
3300;DHT22;1662;49.310;8.134;2024-01-11T05:10:51;-2.00;99.90
3300;DHT22;1662;49.310;8.134;2024-01-11T05:13:17;-2.10;99.90
3300;DHT22;1662;49.310;8.134;2024-01-11T05:15:43;-2.10;99.90
3300;DHT22;1662;49.310;8.134;2024-01-11T05:18:09;-2.00;99.90
3300;DHT22;1662;49.310;8.134;2024-01-11T05:20:36;-2.00;99.90
3300;DHT22;1662;49.310;8.134;2024-01-11T05:23:01;-2.00;99.90
3300;DHT22;1662;49.310;8.134;2024-01-11T05:25:27;-2.00;99.90
3300;DHT22;1662;49.310;8.134;2024-01-11T05:27:53;-2.00;99.90
3300;DHT22;1662;49.310;8.134;2024-01-11T05:30:18;-2.10;99.90
3300;DHT22;1662;49.310;8.134;2024-01-11T05:32:44;-2.10;99.90
3300;DHT22;1662;49.310;8.134;2024-01-11T05:35:09;-2.10;99.90
3300;DHT22;1662;49.310;8.134;2024-01-11T05:37:36;-2.20;99.90
3300;DHT22;1662;49.310;8.134;2024-01-11T05:40:01;-2.20;99.90
3300;DHT22;1662;49.310;8.134;2024-01-11T05:42:27;-2.20;99.90
3300;DHT22;1662;49.310;8.134;2024-01-11T05:44:55;-2.20;99.90
3300;DHT22;1662;49.310;8.134;2024-01-11T05:47:21;-2.20;99.90
3300;DHT22;1662;49.310;8.134;2024-01-11T05:49:47;-2.20;99.90
3300;DHT22;1662;49.310;8.134;2024-01-11T05:52:13;-2.20;99.90
3300;DHT22;1662;49.310;8.134;2024-01-11T05:54:38;-2.10;99.90
3300;DHT22;1662;49.310;8.134;2024-01-11T05:57:04;-2.10;99.90
3300;DHT22;1662;49.310;8.134;2024-01-11T05:59:30;-2.10;99.90
3300;DHT22;1662;49.310;8.134;2024-01-11T06:01:55;-2.10;99.90
3300;DHT22;1662;49.310;8.134;2024-01-11T06:04:25;-2.10;99.90
3300;DHT22;1662;49.310;8.134;2024-01-11T06:06:52;-2.20;99.90
3300;DHT22;1662;49.310;8.134;2024-01-11T06:09:18;-2.20;99.90
3300;DHT22;1662;49.310;8.134;2024-01-11T06:11:44;-2.20;99.90
3300;DHT22;1662;49.310;8.134;2024-01-11T06:14:09;-2.40;99.90
3300;DHT22;1662;49.310;8.134;2024-01-11T06:16:35;-2.40;99.90
3300;DHT22;1662;49.310;8.134;2024-01-11T06:19:01;-2.50;99.90
3300;DHT22;1662;49.310;8.134;2024-01-11T06:21:26;-2.50;99.90
3300;DHT22;1662;49.310;8.134;2024-01-11T06:23:52;-2.50;99.90
3300;DHT22;1662;49.310;8.134;2024-01-11T06:26:17;-2.60;99.90
3300;DHT22;1662;49.310;8.134;2024-01-11T06:28:45;-2.60;99.90
3300;DHT22;1662;49.310;8.134;2024-01-11T06:31:11;-2.60;99.90
3300;DHT22;1662;49.310;8.134;2024-01-11T06:33:37;-2.60;99.90
3300;DHT22;1662;49.310;8.134;2024-01-11T06:36:06;-2.70;99.90
3300;DHT22;1662;49.310;8.134;2024-01-11T06:38:33;-2.70;99.90
3300;DHT22;1662;49.310;8.134;2024-01-11T06:40:59;-2.60;99.90
3300;DHT22;1662;49.310;8.134;2024-01-11T06:43:25;-2.70;99.90
3300;DHT22;1662;49.310;8.134;2024-01-11T06:45:51;-2.70;99.90
3300;DHT22;1662;49.310;8.134;2024-01-11T06:48:19;-2.60;99.90
3300;DHT22;1662;49.310;8.134;2024-01-11T06:50:45;-2.60;99.90
3300;DHT22;1662;49.310;8.134;2024-01-11T06:53:13;-2.60;99.90
3300;DHT22;1662;49.310;8.134;2024-01-11T06:55:38;-2.60;99.90
3300;DHT22;1662;49.310;8.134;2024-01-11T06:58:06;-2.60;99.90
3300;DHT22;1662;49.310;8.134;2024-01-11T07:00:31;-2.60;99.90
3300;DHT22;1662;49.310;8.134;2024-01-11T07:02:57;-2.60;99.90
3300;DHT22;1662;49.310;8.134;2024-01-11T07:05:23;-2.60;99.90
3300;DHT22;1662;49.310;8.134;2024-01-11T07:07:48;-2.60;99.90
3300;DHT22;1662;49.310;8.134;2024-01-11T07:10:14;-2.60;99.90
3300;DHT22;1662;49.310;8.134;2024-01-11T07:12:40;-2.60;99.90
3300;DHT22;1662;49.310;8.134;2024-01-11T07:15:08;-2.60;99.90
3300;DHT22;1662;49.310;8.134;2024-01-11T07:17:36;-2.60;99.90
3300;DHT22;1662;49.310;8.134;2024-01-11T07:20:02;-2.70;99.90
3300;DHT22;1662;49.310;8.134;2024-01-11T07:22:29;-2.70;99.90
3300;DHT22;1662;49.310;8.134;2024-01-11T07:24:57;-2.70;99.90
3300;DHT22;1662;49.310;8.134;2024-01-11T07:27:22;-2.80;99.90
3300;DHT22;1662;49.310;8.134;2024-01-11T07:29:48;-2.70;99.90
3300;DHT22;1662;49.310;8.134;2024-01-11T07:32:14;-2.70;99.90
3300;DHT22;1662;49.310;8.134;2024-01-11T07:34:39;-2.70;99.90
3300;DHT22;1662;49.310;8.134;2024-01-11T07:37:05;-2.70;99.90
3300;DHT22;1662;49.310;8.134;2024-01-11T07:39:31;-2.70;99.90
3300;DHT22;1662;49.310;8.134;2024-01-11T07:41:56;-2.70;99.90
3300;DHT22;1662;49.310;8.134;2024-01-11T07:44:24;-2.70;99.90
3300;DHT22;1662;49.310;8.134;2024-01-11T07:46:50;-2.70;99.90
3300;DHT22;1662;49.310;8.134;2024-01-11T07:49:15;-2.70;99.90
3300;DHT22;1662;49.310;8.134;2024-01-11T07:51:43;-2.70;99.90
3300;DHT22;1662;49.310;8.134;2024-01-11T07:54:09;-2.60;99.90
3300;DHT22;1662;49.310;8.134;2024-01-11T07:56:34;-2.60;99.90
3300;DHT22;1662;49.310;8.134;2024-01-11T07:59:00;-2.60;99.90
3300;DHT22;1662;49.310;8.134;2024-01-11T08:01:28;-2.70;99.90
3300;DHT22;1662;49.310;8.134;2024-01-11T08:03:56;-2.70;99.90
3300;DHT22;1662;49.310;8.134;2024-01-11T08:06:21;-2.70;99.90
3300;DHT22;1662;49.310;8.134;2024-01-11T08:08:47;-2.60;99.90
3300;DHT22;1662;49.310;8.134;2024-01-11T08:11:20;-2.50;99.90
3300;DHT22;1662;49.310;8.134;2024-01-11T08:13:45;-2.50;99.90
3300;DHT22;1662;49.310;8.134;2024-01-11T08:16:18;-2.40;99.90
3300;DHT22;1662;49.310;8.134;2024-01-11T08:18:44;-2.40;99.90
3300;DHT22;1662;49.310;8.134;2024-01-11T08:21:09;-2.40;99.90
3300;DHT22;1662;49.310;8.134;2024-01-11T08:23:40;-2.40;99.90
3300;DHT22;1662;49.310;8.134;2024-01-11T08:26:10;-2.40;99.90
3300;DHT22;1662;49.310;8.134;2024-01-11T08:28:36;-2.30;99.90
3300;DHT22;1662;49.310;8.134;2024-01-11T08:31:02;-2.40;99.90
3300;DHT22;1662;49.310;8.134;2024-01-11T08:33:30;-2.20;99.90
3300;DHT22;1662;49.310;8.134;2024-01-11T08:35:56;-2.20;99.90
3300;DHT22;1662;49.310;8.134;2024-01-11T08:38:21;-2.20;99.90
3300;DHT22;1662;49.310;8.134;2024-01-11T08:40:47;-2.10;99.90
3300;DHT22;1662;49.310;8.134;2024-01-11T08:43:13;-2.10;99.90
3300;DHT22;1662;49.310;8.134;2024-01-11T08:45:39;-2.00;99.90
3300;DHT22;1662;49.310;8.134;2024-01-11T08:48:05;-2.00;99.90
3300;DHT22;1662;49.310;8.134;2024-01-11T08:50:30;-2.00;99.90
3300;DHT22;1662;49.310;8.134;2024-01-11T08:52:58;-1.90;99.90
3300;DHT22;1662;49.310;8.134;2024-01-11T08:55:23;-1.80;99.90
3300;DHT22;1662;49.310;8.134;2024-01-11T08:57:49;-1.80;99.90
3300;DHT22;1662;49.310;8.134;2024-01-11T09:00:14;-1.70;99.90
3300;DHT22;1662;49.310;8.134;2024-01-11T09:02:46;-1.70;99.90
3300;DHT22;1662;49.310;8.134;2024-01-11T09:05:14;-1.70;99.90
3300;DHT22;1662;49.310;8.134;2024-01-11T09:07:39;-1.60;99.90
3300;DHT22;1662;49.310;8.134;2024-01-11T09:10:06;-1.60;99.90
3300;DHT22;1662;49.310;8.134;2024-01-11T09:12:34;-1.50;99.90
3300;DHT22;1662;49.310;8.134;2024-01-11T09:15:00;-1.40;99.90
3300;DHT22;1662;49.310;8.134;2024-01-11T09:17:25;-1.30;99.90
3300;DHT22;1662;49.310;8.134;2024-01-11T09:19:51;-1.30;99.90
3300;DHT22;1662;49.310;8.134;2024-01-11T09:22:17;-1.20;99.90
3300;DHT22;1662;49.310;8.134;2024-01-11T09:24:42;-1.20;99.90
3300;DHT22;1662;49.310;8.134;2024-01-11T09:27:08;-1.10;99.90
3300;DHT22;1662;49.310;8.134;2024-01-11T09:29:34;-1.10;99.90
3300;DHT22;1662;49.310;8.134;2024-01-11T09:31:59;-1.00;99.90
3300;DHT22;1662;49.310;8.134;2024-01-11T09:34:25;-1.00;99.90
3300;DHT22;1662;49.310;8.134;2024-01-11T09:36:51;-1.00;99.90
3300;DHT22;1662;49.310;8.134;2024-01-11T09:39:17;-0.90;99.90
3300;DHT22;1662;49.310;8.134;2024-01-11T09:41:55;-0.80;99.90
3300;DHT22;1662;49.310;8.134;2024-01-11T09:44:21;-0.80;99.90
3300;DHT22;1662;49.310;8.134;2024-01-11T09:46:48;-0.70;99.90
3300;DHT22;1662;49.310;8.134;2024-01-11T09:49:15;-0.70;99.90
3300;DHT22;1662;49.310;8.134;2024-01-11T09:51:45;-0.60;99.90
3300;DHT22;1662;49.310;8.134;2024-01-11T09:54:12;-0.50;99.90
3300;DHT22;1662;49.310;8.134;2024-01-11T09:56:39;-0.50;99.90
3300;DHT22;1662;49.310;8.134;2024-01-11T09:59:06;-0.50;99.90
3300;DHT22;1662;49.310;8.134;2024-01-11T10:01:35;-0.40;99.90
3300;DHT22;1662;49.310;8.134;2024-01-11T10:04:02;-0.30;99.90
3300;DHT22;1662;49.310;8.134;2024-01-11T10:06:31;-0.20;99.90
3300;DHT22;1662;49.310;8.134;2024-01-11T10:08:58;-0.10;99.90
3300;DHT22;1662;49.310;8.134;2024-01-11T10:11:24;-0.10;99.90
3300;DHT22;1662;49.310;8.134;2024-01-11T10:13:56;0.00;99.90
3300;DHT22;1662;49.310;8.134;2024-01-11T10:16:22;0.10;99.90
3300;DHT22;1662;49.310;8.134;2024-01-11T10:18:48;0.10;99.90
3300;DHT22;1662;49.310;8.134;2024-01-11T10:21:16;0.10;99.90
3300;DHT22;1662;49.310;8.134;2024-01-11T10:23:44;0.20;99.90
3300;DHT22;1662;49.310;8.134;2024-01-11T10:26:14;0.20;99.90
3300;DHT22;1662;49.310;8.134;2024-01-11T10:28:45;0.30;99.90
3300;DHT22;1662;49.310;8.134;2024-01-11T10:31:11;0.30;99.90
3300;DHT22;1662;49.310;8.134;2024-01-11T10:33:37;0.30;99.90
3300;DHT22;1662;49.310;8.134;2024-01-11T10:36:05;0.30;99.90
3300;DHT22;1662;49.310;8.134;2024-01-11T10:38:36;0.30;99.90
3300;DHT22;1662;49.310;8.134;2024-01-11T10:41:04;0.40;99.90
3300;DHT22;1662;49.310;8.134;2024-01-11T10:43:32;0.50;99.90
3300;DHT22;1662;49.310;8.134;2024-01-11T10:46:01;0.50;99.90
3300;DHT22;1662;49.310;8.134;2024-01-11T10:48:30;0.60;99.90
3300;DHT22;1662;49.310;8.134;2024-01-11T10:50:59;0.60;99.90
3300;DHT22;1662;49.310;8.134;2024-01-11T10:53:36;0.70;99.90
3300;DHT22;1662;49.310;8.134;2024-01-11T10:56:06;0.80;99.90
3300;DHT22;1662;49.310;8.134;2024-01-11T10:58:35;0.80;99.90
3300;DHT22;1662;49.310;8.134;2024-01-11T11:01:01;0.90;99.90
3300;DHT22;1662;49.310;8.134;2024-01-11T11:03:28;1.00;99.90
3300;DHT22;1662;49.310;8.134;2024-01-11T11:05:55;1.10;99.90
3300;DHT22;1662;49.310;8.134;2024-01-11T11:08:23;1.20;99.90
3300;DHT22;1662;49.310;8.134;2024-01-11T11:10:51;1.30;99.90
3300;DHT22;1662;49.310;8.134;2024-01-11T11:13:21;1.40;99.90
3300;DHT22;1662;49.310;8.134;2024-01-11T11:15:48;1.50;99.90
3300;DHT22;1662;49.310;8.134;2024-01-11T11:18:15;1.50;99.90
3300;DHT22;1662;49.310;8.134;2024-01-11T11:20:41;1.60;99.90
3300;DHT22;1662;49.310;8.134;2024-01-11T11:23:08;1.60;99.90
3300;DHT22;1662;49.310;8.134;2024-01-11T11:25:43;1.70;99.90
3300;DHT22;1662;49.310;8.134;2024-01-11T11:28:11;1.70;99.90
3300;DHT22;1662;49.310;8.134;2024-01-11T11:30:38;1.80;99.90
3300;DHT22;1662;49.310;8.134;2024-01-11T11:33:22;1.90;99.90
3300;DHT22;1662;49.310;8.134;2024-01-11T11:35:52;1.90;99.90
3300;DHT22;1662;49.310;8.134;2024-01-11T11:38:21;1.90;99.90
3300;DHT22;1662;49.310;8.134;2024-01-11T11:40:52;2.00;99.90
3300;DHT22;1662;49.310;8.134;2024-01-11T11:43:18;2.00;99.90
3300;DHT22;1662;49.310;8.134;2024-01-11T11:45:47;2.00;99.90
3300;DHT22;1662;49.310;8.134;2024-01-11T11:51:07;1.90;99.90
3300;DHT22;1662;49.310;8.134;2024-01-11T11:53:37;1.90;99.90
3300;DHT22;1662;49.310;8.134;2024-01-11T11:56:03;1.90;99.90
3300;DHT22;1662;49.310;8.134;2024-01-11T11:58:30;1.90;99.90
3300;DHT22;1662;49.310;8.134;2024-01-11T12:00:57;1.90;99.90
3300;DHT22;1662;49.310;8.134;2024-01-11T12:03:31;1.90;99.90
3300;DHT22;1662;49.310;8.134;2024-01-11T12:05:58;1.90;99.90
3300;DHT22;1662;49.310;8.134;2024-01-11T12:08:24;2.00;99.90
3300;DHT22;1662;49.310;8.134;2024-01-11T12:10:51;2.10;99.90
3300;DHT22;1662;49.310;8.134;2024-01-11T12:13:18;2.20;99.90
3300;DHT22;1662;49.310;8.134;2024-01-11T12:15:43;2.20;99.90
3300;DHT22;1662;49.310;8.134;2024-01-11T12:18:10;2.20;99.90
3300;DHT22;1662;49.310;8.134;2024-01-11T12:20:35;2.30;99.90
3300;DHT22;1662;49.310;8.134;2024-01-11T12:23:01;2.50;99.90
3300;DHT22;1662;49.310;8.134;2024-01-11T12:25:28;2.50;99.90
3300;DHT22;1662;49.310;8.134;2024-01-11T12:27:54;2.60;99.90
3300;DHT22;1662;49.310;8.134;2024-01-11T12:30:27;2.60;99.90
3300;DHT22;1662;49.310;8.134;2024-01-11T12:32:56;2.70;99.90
3300;DHT22;1662;49.310;8.134;2024-01-11T12:35:23;2.70;99.90
3300;DHT22;1662;49.310;8.134;2024-01-11T12:37:55;2.70;99.90
3300;DHT22;1662;49.310;8.134;2024-01-11T12:40:21;2.90;99.90
3300;DHT22;1662;49.310;8.134;2024-01-11T12:42:47;2.90;99.90
3300;DHT22;1662;49.310;8.134;2024-01-11T12:45:15;3.10;99.90
3300;DHT22;1662;49.310;8.134;2024-01-11T12:47:41;3.10;99.90
3300;DHT22;1662;49.310;8.134;2024-01-11T12:50:07;3.10;99.90
3300;DHT22;1662;49.310;8.134;2024-01-11T12:52:33;3.10;99.90
3300;DHT22;1662;49.310;8.134;2024-01-11T12:54:58;3.10;99.90
3300;DHT22;1662;49.310;8.134;2024-01-11T12:57:25;3.20;99.90
3300;DHT22;1662;49.310;8.134;2024-01-11T12:59:52;3.10;99.90
3300;DHT22;1662;49.310;8.134;2024-01-11T13:02:18;3.20;99.90
3300;DHT22;1662;49.310;8.134;2024-01-11T13:04:45;3.30;99.90
3300;DHT22;1662;49.310;8.134;2024-01-11T13:07:13;3.40;99.90
3300;DHT22;1662;49.310;8.134;2024-01-11T13:09:41;3.40;99.90
3300;DHT22;1662;49.310;8.134;2024-01-11T13:12:07;3.40;99.90
3300;DHT22;1662;49.310;8.134;2024-01-11T13:14:32;3.50;99.90
3300;DHT22;1662;49.310;8.134;2024-01-11T13:16:58;3.50;99.90
3300;DHT22;1662;49.310;8.134;2024-01-11T13:19:24;3.50;99.90
3300;DHT22;1662;49.310;8.134;2024-01-11T13:21:50;3.50;99.90
3300;DHT22;1662;49.310;8.134;2024-01-11T13:24:15;3.50;99.90
3300;DHT22;1662;49.310;8.134;2024-01-11T13:26:41;3.60;99.90
3300;DHT22;1662;49.310;8.134;2024-01-11T13:29:07;3.60;99.90
3300;DHT22;1662;49.310;8.134;2024-01-11T13:31:33;3.70;99.90
3300;DHT22;1662;49.310;8.134;2024-01-11T13:33:59;3.70;99.90
3300;DHT22;1662;49.310;8.134;2024-01-11T13:36:24;3.80;99.90
3300;DHT22;1662;49.310;8.134;2024-01-11T13:38:51;3.90;99.90
3300;DHT22;1662;49.310;8.134;2024-01-11T13:41:19;4.00;99.90
3300;DHT22;1662;49.310;8.134;2024-01-11T13:43:44;4.10;99.90
3300;DHT22;1662;49.310;8.134;2024-01-11T13:46:10;4.30;99.90
3300;DHT22;1662;49.310;8.134;2024-01-11T13:48:38;4.40;99.90
3300;DHT22;1662;49.310;8.134;2024-01-11T13:51:04;4.50;99.90
3300;DHT22;1662;49.310;8.134;2024-01-11T13:53:30;4.70;99.90
3300;DHT22;1662;49.310;8.134;2024-01-11T13:55:56;4.80;99.90
3300;DHT22;1662;49.310;8.134;2024-01-11T13:58:22;5.00;99.90
3300;DHT22;1662;49.310;8.134;2024-01-11T14:00:48;5.10;99.90
3300;DHT22;1662;49.310;8.134;2024-01-11T14:03:14;5.30;99.90
3300;DHT22;1662;49.310;8.134;2024-01-11T14:05:39;5.40;99.90
3300;DHT22;1662;49.310;8.134;2024-01-11T14:08:05;5.60;99.90
3300;DHT22;1662;49.310;8.134;2024-01-11T14:10:35;5.80;99.90
3300;DHT22;1662;49.310;8.134;2024-01-11T14:13:01;5.90;99.90
3300;DHT22;1662;49.310;8.134;2024-01-11T14:15:27;6.00;99.90
3300;DHT22;1662;49.310;8.134;2024-01-11T14:17:53;5.90;99.90
3300;DHT22;1662;49.310;8.134;2024-01-11T14:20:20;5.80;99.90
3300;DHT22;1662;49.310;8.134;2024-01-11T14:22:47;5.80;99.90
3300;DHT22;1662;49.310;8.134;2024-01-11T14:25:21;5.80;99.90
3300;DHT22;1662;49.310;8.134;2024-01-11T14:27:50;5.70;99.90
3300;DHT22;1662;49.310;8.134;2024-01-11T14:30:15;5.60;99.90
3300;DHT22;1662;49.310;8.134;2024-01-11T14:32:41;5.30;99.90
3300;DHT22;1662;49.310;8.134;2024-01-11T14:35:07;5.00;99.90
3300;DHT22;1662;49.310;8.134;2024-01-11T14:37:37;4.70;99.90
3300;DHT22;1662;49.310;8.134;2024-01-11T14:40:07;4.40;99.90
3300;DHT22;1662;49.310;8.134;2024-01-11T14:42:36;4.20;99.90
3300;DHT22;1662;49.310;8.134;2024-01-11T14:45:02;4.10;99.90
3300;DHT22;1662;49.310;8.134;2024-01-11T14:47:29;3.90;99.90
3300;DHT22;1662;49.310;8.134;2024-01-11T14:49:57;3.70;99.90
3300;DHT22;1662;49.310;8.134;2024-01-11T14:52:22;3.50;99.90
3300;DHT22;1662;49.310;8.134;2024-01-11T14:54:48;3.40;99.90
3300;DHT22;1662;49.310;8.134;2024-01-11T14:57:14;3.40;99.90
3300;DHT22;1662;49.310;8.134;2024-01-11T14:59:40;3.40;99.90
3300;DHT22;1662;49.310;8.134;2024-01-11T15:02:06;3.20;99.90
3300;DHT22;1662;49.310;8.134;2024-01-11T15:04:31;3.10;99.90
3300;DHT22;1662;49.310;8.134;2024-01-11T15:06:57;3.10;99.90
3300;DHT22;1662;49.310;8.134;2024-01-11T15:09:23;3.00;99.90
3300;DHT22;1662;49.310;8.134;2024-01-11T15:11:48;3.00;99.90
3300;DHT22;1662;49.310;8.134;2024-01-11T15:14:14;2.90;99.90
3300;DHT22;1662;49.310;8.134;2024-01-11T15:16:39;2.70;99.90
3300;DHT22;1662;49.310;8.134;2024-01-11T15:19:05;2.60;99.90
3300;DHT22;1662;49.310;8.134;2024-01-11T15:21:31;2.60;99.90
3300;DHT22;1662;49.310;8.134;2024-01-11T15:23:57;2.50;99.90
3300;DHT22;1662;49.310;8.134;2024-01-11T15:26:26;2.50;99.90
3300;DHT22;1662;49.310;8.134;2024-01-11T15:28:54;2.50;99.90
3300;DHT22;1662;49.310;8.134;2024-01-11T15:31:20;2.50;99.90
3300;DHT22;1662;49.310;8.134;2024-01-11T15:33:45;2.40;99.90
3300;DHT22;1662;49.310;8.134;2024-01-11T15:36:12;2.20;99.90
3300;DHT22;1662;49.310;8.134;2024-01-11T15:38:38;2.40;99.90
3300;DHT22;1662;49.310;8.134;2024-01-11T15:41:04;3.00;99.90
3300;DHT22;1662;49.310;8.134;2024-01-11T15:43:31;3.00;99.90
3300;DHT22;1662;49.310;8.134;2024-01-11T15:45:57;2.80;99.90
3300;DHT22;1662;49.310;8.134;2024-01-11T15:48:22;2.60;99.90
3300;DHT22;1662;49.310;8.134;2024-01-11T15:50:49;2.40;99.90
3300;DHT22;1662;49.310;8.134;2024-01-11T15:53:15;2.20;99.90
3300;DHT22;1662;49.310;8.134;2024-01-11T15:55:41;2.10;99.90
3300;DHT22;1662;49.310;8.134;2024-01-11T15:58:06;1.90;99.90
3300;DHT22;1662;49.310;8.134;2024-01-11T16:00:34;1.90;99.90
3300;DHT22;1662;49.310;8.134;2024-01-11T16:03:01;1.80;99.90
3300;DHT22;1662;49.310;8.134;2024-01-11T16:05:26;1.70;99.90